sensor_id;sensor_type;location;lat;lon;timestamp;P1;durP1;ratioP1;P2;durP2;ratioP2
5054;SDS011;13829;48.990;8.346;2023-07-16T00:01:14;2.88;;;2.15;;
5054;SDS011;13829;48.990;8.346;2023-07-16T00:03:42;2.53;;;2.05;;
5054;SDS011;13829;48.990;8.346;2023-07-16T00:06:09;2.65;;;2.10;;
5054;SDS011;13829;48.990;8.346;2023-07-16T00:08:36;4.13;;;2.50;;
5054;SDS011;13829;48.990;8.346;2023-07-16T00:11:03;2.70;;;1.98;;
5054;SDS011;13829;48.990;8.346;2023-07-16T00:13:30;3.17;;;2.20;;
5054;SDS011;13829;48.990;8.346;2023-07-16T00:15:57;3.55;;;2.50;;
5054;SDS011;13829;48.990;8.346;2023-07-16T00:18:24;3.33;;;2.47;;
5054;SDS011;13829;48.990;8.346;2023-07-16T00:20:52;3.65;;;2.50;;
5054;SDS011;13829;48.990;8.346;2023-07-16T00:23:19;3.42;;;2.38;;
5054;SDS011;13829;48.990;8.346;2023-07-16T00:25:46;5.00;;;2.35;;
5054;SDS011;13829;48.990;8.346;2023-07-16T00:28:13;3.83;;;2.38;;
5054;SDS011;13829;48.990;8.346;2023-07-16T00:30:40;3.47;;;2.47;;
5054;SDS011;13829;48.990;8.346;2023-07-16T00:33:07;2.45;;;1.92;;
5054;SDS011;13829;48.990;8.346;2023-07-16T00:35:34;3.70;;;2.05;;
5054;SDS011;13829;48.990;8.346;2023-07-16T00:38:02;3.35;;;2.25;;
5054;SDS011;13829;48.990;8.346;2023-07-16T00:40:29;2.85;;;2.05;;
5054;SDS011;13829;48.990;8.346;2023-07-16T00:42:56;3.28;;;1.85;;
5054;SDS011;13829;48.990;8.346;2023-07-16T00:45:23;1.55;;;1.45;;
5054;SDS011;13829;48.990;8.346;2023-07-16T00:47:50;1.90;;;1.70;;
5054;SDS011;13829;48.990;8.346;2023-07-16T00:50:17;4.60;;;2.05;;
5054;SDS011;13829;48.990;8.346;2023-07-16T00:52:45;4.28;;;1.90;;
5054;SDS011;13829;48.990;8.346;2023-07-16T00:55:14;2.00;;;1.77;;
5054;SDS011;13829;48.990;8.346;2023-07-16T00:57:41;4.50;;;1.95;;
5054;SDS011;13829;48.990;8.346;2023-07-16T01:00:09;2.42;;;1.95;;
5054;SDS011;13829;48.990;8.346;2023-07-16T01:02:38;5.15;;;1.90;;
5054;SDS011;13829;48.990;8.346;2023-07-16T01:05:05;4.07;;;2.13;;
5054;SDS011;13829;48.990;8.346;2023-07-16T01:07:33;1.98;;;1.77;;
5054;SDS011;13829;48.990;8.346;2023-07-16T01:10:03;2.80;;;1.65;;
5054;SDS011;13829;48.990;8.346;2023-07-16T01:12:32;2.70;;;1.70;;
5054;SDS011;13829;48.990;8.346;2023-07-16T01:15:00;4.22;;;2.08;;
5054;SDS011;13829;48.990;8.346;2023-07-16T01:17:27;2.55;;;1.80;;
5054;SDS011;13829;48.990;8.346;2023-07-16T01:19:54;2.15;;;1.67;;
5054;SDS011;13829;48.990;8.346;2023-07-16T01:22:29;4.25;;;1.80;;
5054;SDS011;13829;48.990;8.346;2023-07-16T01:25:23;2.53;;;1.40;;
5054;SDS011;13829;48.990;8.346;2023-07-16T01:28:35;2.13;;;1.88;;
5054;SDS011;13829;48.990;8.346;2023-07-16T01:31:25;4.05;;;1.90;;
5054;SDS011;13829;48.990;8.346;2023-07-16T01:33:54;2.20;;;1.63;;
5054;SDS011;13829;48.990;8.346;2023-07-16T01:36:25;3.38;;;1.90;;
5054;SDS011;13829;48.990;8.346;2023-07-16T01:38:53;3.75;;;1.92;;
5054;SDS011;13829;48.990;8.346;2023-07-16T01:41:21;4.68;;;1.67;;
5054;SDS011;13829;48.990;8.346;2023-07-16T01:43:49;2.83;;;2.07;;
5054;SDS011;13829;48.990;8.346;2023-07-16T01:46:16;4.30;;;1.73;;
5054;SDS011;13829;48.990;8.346;2023-07-16T01:48:46;3.15;;;1.50;;
5054;SDS011;13829;48.990;8.346;2023-07-16T01:51:13;4.60;;;1.92;;
5054;SDS011;13829;48.990;8.346;2023-07-16T01:53:40;4.78;;;1.85;;
5054;SDS011;13829;48.990;8.346;2023-07-16T01:56:07;2.78;;;1.80;;
5054;SDS011;13829;48.990;8.346;2023-07-16T01:58:34;3.03;;;1.63;;
5054;SDS011;13829;48.990;8.346;2023-07-16T02:01:01;3.50;;;1.80;;
5054;SDS011;13829;48.990;8.346;2023-07-16T02:03:28;1.55;;;1.30;;
5054;SDS011;13829;48.990;8.346;2023-07-16T02:05:56;3.70;;;1.73;;
5054;SDS011;13829;48.990;8.346;2023-07-16T02:08:23;2.67;;;1.85;;
5054;SDS011;13829;48.990;8.346;2023-07-16T02:10:50;2.47;;;1.58;;
5054;SDS011;13829;48.990;8.346;2023-07-16T02:13:17;2.88;;;1.70;;
5054;SDS011;13829;48.990;8.346;2023-07-16T02:15:44;2.85;;;1.80;;
5054;SDS011;13829;48.990;8.346;2023-07-16T02:18:11;2.47;;;1.50;;
5054;SDS011;13829;48.990;8.346;2023-07-16T02:20:38;2.63;;;1.52;;
5054;SDS011;13829;48.990;8.346;2023-07-16T02:23:06;3.65;;;1.98;;
5054;SDS011;13829;48.990;8.346;2023-07-16T02:25:33;3.55;;;2.00;;
5054;SDS011;13829;48.990;8.346;2023-07-16T02:28:00;3.35;;;2.03;;
5054;SDS011;13829;48.990;8.346;2023-07-16T02:30:44;3.17;;;1.90;;
5054;SDS011;13829;48.990;8.346;2023-07-16T02:33:11;2.58;;;2.35;;
5054;SDS011;13829;48.990;8.346;2023-07-16T02:35:38;7.35;;;2.58;;
5054;SDS011;13829;48.990;8.346;2023-07-16T02:38:06;6.55;;;2.20;;
5054;SDS011;13829;48.990;8.346;2023-07-16T02:40:33;4.15;;;2.33;;
5054;SDS011;13829;48.990;8.346;2023-07-16T02:43:00;5.88;;;2.00;;
5054;SDS011;13829;48.990;8.346;2023-07-16T02:45:27;3.65;;;2.10;;
5054;SDS011;13829;48.990;8.346;2023-07-16T02:47:54;4.00;;;1.90;;
5054;SDS011;13829;48.990;8.346;2023-07-16T02:50:21;3.67;;;2.03;;
5054;SDS011;13829;48.990;8.346;2023-07-16T02:52:48;4.88;;;1.90;;
5054;SDS011;13829;48.990;8.346;2023-07-16T02:55:16;3.30;;;1.80;;
5054;SDS011;13829;48.990;8.346;2023-07-16T02:57:43;3.10;;;1.73;;
5054;SDS011;13829;48.990;8.346;2023-07-16T03:00:10;4.30;;;2.05;;
5054;SDS011;13829;48.990;8.346;2023-07-16T03:02:38;3.25;;;1.90;;
5054;SDS011;13829;48.990;8.346;2023-07-16T03:05:05;4.05;;;2.20;;
5054;SDS011;13829;48.990;8.346;2023-07-16T03:07:33;4.75;;;2.15;;
5054;SDS011;13829;48.990;8.346;2023-07-16T03:10:00;4.25;;;1.98;;
5054;SDS011;13829;48.990;8.346;2023-07-16T03:12:28;3.13;;;1.90;;
5054;SDS011;13829;48.990;8.346;2023-07-16T03:14:55;4.15;;;2.30;;
5054;SDS011;13829;48.990;8.346;2023-07-16T03:17:22;4.40;;;1.90;;
5054;SDS011;13829;48.990;8.346;2023-07-16T03:19:49;2.83;;;1.87;;
5054;SDS011;13829;48.990;8.346;2023-07-16T03:22:16;6.07;;;2.25;;
5054;SDS011;13829;48.990;8.346;2023-07-16T03:24:43;4.03;;;2.20;;
5054;SDS011;13829;48.990;8.346;2023-07-16T03:27:10;5.73;;;2.20;;
5054;SDS011;13829;48.990;8.346;2023-07-16T03:29:38;4.00;;;2.30;;
5054;SDS011;13829;48.990;8.346;2023-07-16T03:32:05;5.25;;;2.33;;
5054;SDS011;13829;48.990;8.346;2023-07-16T03:34:33;3.88;;;2.65;;
5054;SDS011;13829;48.990;8.346;2023-07-16T03:37:00;3.20;;;1.80;;
5054;SDS011;13829;48.990;8.346;2023-07-16T03:39:27;5.78;;;2.10;;
5054;SDS011;13829;48.990;8.346;2023-07-16T03:41:54;4.50;;;1.80;;
5054;SDS011;13829;48.990;8.346;2023-07-16T03:44:21;3.53;;;1.87;;
5054;SDS011;13829;48.990;8.346;2023-07-16T03:46:49;5.30;;;1.90;;
5054;SDS011;13829;48.990;8.346;2023-07-16T03:49:16;2.85;;;1.88;;
5054;SDS011;13829;48.990;8.346;2023-07-16T03:51:43;5.80;;;1.75;;
5054;SDS011;13829;48.990;8.346;2023-07-16T03:54:10;2.83;;;2.03;;
5054;SDS011;13829;48.990;8.346;2023-07-16T03:56:37;6.13;;;2.20;;
5054;SDS011;13829;48.990;8.346;2023-07-16T03:59:04;5.95;;;2.45;;
5054;SDS011;13829;48.990;8.346;2023-07-16T04:01:30;3.55;;;2.13;;
5054;SDS011;13829;48.990;8.346;2023-07-16T04:03:59;3.55;;;1.55;;
5054;SDS011;13829;48.990;8.346;2023-07-16T04:06:26;4.57;;;1.77;;
5054;SDS011;13829;48.990;8.346;2023-07-16T04:08:53;3.70;;;2.00;;
5054;SDS011;13829;48.990;8.346;2023-07-16T04:11:19;3.20;;;2.05;;
5054;SDS011;13829;48.990;8.346;2023-07-16T04:13:46;6.47;;;2.20;;
5054;SDS011;13829;48.990;8.346;2023-07-16T04:16:13;2.72;;;1.98;;
5054;SDS011;13829;48.990;8.346;2023-07-16T04:18:40;2.97;;;2.07;;
5054;SDS011;13829;48.990;8.346;2023-07-16T04:21:08;4.93;;;2.28;;
5054;SDS011;13829;48.990;8.346;2023-07-16T04:23:35;3.67;;;2.08;;
5054;SDS011;13829;48.990;8.346;2023-07-16T04:26:02;3.40;;;1.98;;
5054;SDS011;13829;48.990;8.346;2023-07-16T04:28:29;3.55;;;1.90;;
5054;SDS011;13829;48.990;8.346;2023-07-16T04:30:56;3.08;;;1.77;;
5054;SDS011;13829;48.990;8.346;2023-07-16T04:33:23;3.58;;;2.10;;
5054;SDS011;13829;48.990;8.346;2023-07-16T04:35:50;3.47;;;2.15;;
5054;SDS011;13829;48.990;8.346;2023-07-16T04:38:18;4.55;;;2.17;;
5054;SDS011;13829;48.990;8.346;2023-07-16T04:40:45;6.43;;;2.08;;
5054;SDS011;13829;48.990;8.346;2023-07-16T04:43:12;6.68;;;2.30;;
5054;SDS011;13829;48.990;8.346;2023-07-16T04:45:39;5.10;;;2.03;;
5054;SDS011;13829;48.990;8.346;2023-07-16T04:48:06;6.28;;;2.30;;
5054;SDS011;13829;48.990;8.346;2023-07-16T04:50:33;4.18;;;1.90;;
5054;SDS011;13829;48.990;8.346;2023-07-16T04:53:00;2.78;;;1.83;;
5054;SDS011;13829;48.990;8.346;2023-07-16T04:55:28;6.50;;;1.80;;
5054;SDS011;13829;48.990;8.346;2023-07-16T04:57:55;4.80;;;1.88;;
5054;SDS011;13829;48.990;8.346;2023-07-16T05:00:22;3.58;;;2.00;;
5054;SDS011;13829;48.990;8.346;2023-07-16T05:02:49;4.13;;;1.90;;
5054;SDS011;13829;48.990;8.346;2023-07-16T05:05:16;4.15;;;2.00;;
5054;SDS011;13829;48.990;8.346;2023-07-16T05:07:43;4.28;;;1.52;;
5054;SDS011;13829;48.990;8.346;2023-07-16T05:10:11;4.88;;;1.92;;
5054;SDS011;13829;48.990;8.346;2023-07-16T05:12:39;4.22;;;1.70;;
5054;SDS011;13829;48.990;8.346;2023-07-16T05:15:06;4.05;;;1.98;;
5054;SDS011;13829;48.990;8.346;2023-07-16T05:17:35;3.10;;;2.00;;
5054;SDS011;13829;48.990;8.346;2023-07-16T05:20:02;5.53;;;1.90;;
5054;SDS011;13829;48.990;8.346;2023-07-16T05:22:30;2.10;;;1.70;;
5054;SDS011;13829;48.990;8.346;2023-07-16T05:24:56;2.80;;;1.80;;
5054;SDS011;13829;48.990;8.346;2023-07-16T05:27:24;3.03;;;1.73;;
5054;SDS011;13829;48.990;8.346;2023-07-16T05:29:52;5.47;;;2.17;;
5054;SDS011;13829;48.990;8.346;2023-07-16T05:32:19;5.47;;;2.22;;
5054;SDS011;13829;48.990;8.346;2023-07-16T05:34:47;5.78;;;2.10;;
5054;SDS011;13829;48.990;8.346;2023-07-16T05:37:14;2.95;;;2.00;;
5054;SDS011;13829;48.990;8.346;2023-07-16T05:39:41;7.15;;;1.95;;
5054;SDS011;13829;48.990;8.346;2023-07-16T05:42:08;8.80;;;2.50;;
5054;SDS011;13829;48.990;8.346;2023-07-16T05:44:35;2.72;;;1.73;;
5054;SDS011;13829;48.990;8.346;2023-07-16T05:47:04;2.40;;;1.50;;
5054;SDS011;13829;48.990;8.346;2023-07-16T05:49:31;4.38;;;1.60;;
5054;SDS011;13829;48.990;8.346;2023-07-16T05:51:58;4.00;;;1.80;;
5054;SDS011;13829;48.990;8.346;2023-07-16T05:54:25;3.58;;;1.77;;
5054;SDS011;13829;48.990;8.346;2023-07-16T05:56:52;2.40;;;2.15;;
5054;SDS011;13829;48.990;8.346;2023-07-16T05:59:19;2.15;;;1.70;;
5054;SDS011;13829;48.990;8.346;2023-07-16T06:01:46;4.65;;;1.95;;
5054;SDS011;13829;48.990;8.346;2023-07-16T06:04:14;4.57;;;2.03;;
5054;SDS011;13829;48.990;8.346;2023-07-16T06:06:41;6.45;;;2.05;;
5054;SDS011;13829;48.990;8.346;2023-07-16T06:09:08;4.78;;;2.10;;
5054;SDS011;13829;48.990;8.346;2023-07-16T06:11:35;7.20;;;1.98;;
5054;SDS011;13829;48.990;8.346;2023-07-16T06:14:02;3.28;;;1.83;;
5054;SDS011;13829;48.990;8.346;2023-07-16T06:16:29;3.58;;;1.80;;
5054;SDS011;13829;48.990;8.346;2023-07-16T06:18:56;3.92;;;2.08;;
5054;SDS011;13829;48.990;8.346;2023-07-16T06:21:24;2.33;;;1.42;;
5054;SDS011;13829;48.990;8.346;2023-07-16T06:23:51;5.00;;;1.80;;
5054;SDS011;13829;48.990;8.346;2023-07-16T06:26:18;4.78;;;1.70;;
5054;SDS011;13829;48.990;8.346;2023-07-16T06:28:45;3.90;;;1.60;;
5054;SDS011;13829;48.990;8.346;2023-07-16T06:31:14;4.40;;;1.75;;
5054;SDS011;13829;48.990;8.346;2023-07-16T06:33:41;4.13;;;1.90;;
5054;SDS011;13829;48.990;8.346;2023-07-16T06:36:08;2.42;;;1.42;;
5054;SDS011;13829;48.990;8.346;2023-07-16T06:38:36;4.55;;;1.90;;
5054;SDS011;13829;48.990;8.346;2023-07-16T06:41:03;4.63;;;1.73;;
5054;SDS011;13829;48.990;8.346;2023-07-16T06:43:30;3.05;;;1.80;;
5054;SDS011;13829;48.990;8.346;2023-07-16T06:45:57;4.20;;;1.80;;
5054;SDS011;13829;48.990;8.346;2023-07-16T06:48:24;5.78;;;1.70;;
5054;SDS011;13829;48.990;8.346;2023-07-16T06:50:51;4.70;;;1.50;;
5054;SDS011;13829;48.990;8.346;2023-07-16T06:53:18;4.95;;;1.92;;
5054;SDS011;13829;48.990;8.346;2023-07-16T06:55:48;4.90;;;1.80;;
5054;SDS011;13829;48.990;8.346;2023-07-16T06:58:15;6.28;;;1.75;;
5054;SDS011;13829;48.990;8.346;2023-07-16T07:00:42;3.63;;;1.67;;
5054;SDS011;13829;48.990;8.346;2023-07-16T07:03:09;7.38;;;2.05;;
5054;SDS011;13829;48.990;8.346;2023-07-16T07:05:36;2.55;;;1.30;;
5054;SDS011;13829;48.990;8.346;2023-07-16T07:08:07;6.93;;;1.70;;
5054;SDS011;13829;48.990;8.346;2023-07-16T07:10:34;3.30;;;1.60;;
5054;SDS011;13829;48.990;8.346;2023-07-16T07:13:04;5.07;;;1.90;;
5054;SDS011;13829;48.990;8.346;2023-07-16T07:15:31;7.60;;;2.42;;
5054;SDS011;13829;48.990;8.346;2023-07-16T07:17:58;3.38;;;2.03;;
5054;SDS011;13829;48.990;8.346;2023-07-16T07:20:25;6.35;;;1.88;;
5054;SDS011;13829;48.990;8.346;2023-07-16T07:22:52;7.03;;;2.05;;
5054;SDS011;13829;48.990;8.346;2023-07-16T07:25:19;3.42;;;1.58;;
5054;SDS011;13829;48.990;8.346;2023-07-16T07:27:46;4.25;;;1.90;;
5054;SDS011;13829;48.990;8.346;2023-07-16T07:30:14;4.50;;;2.00;;
5054;SDS011;13829;48.990;8.346;2023-07-16T07:32:41;3.55;;;2.20;;
5054;SDS011;13829;48.990;8.346;2023-07-16T07:35:08;4.68;;;1.80;;
5054;SDS011;13829;48.990;8.346;2023-07-16T07:37:35;4.32;;;1.58;;
5054;SDS011;13829;48.990;8.346;2023-07-16T07:40:03;5.28;;;1.92;;
5054;SDS011;13829;48.990;8.346;2023-07-16T07:42:31;4.18;;;1.73;;
5054;SDS011;13829;48.990;8.346;2023-07-16T07:44:58;3.90;;;1.60;;
5054;SDS011;13829;48.990;8.346;2023-07-16T07:47:26;4.57;;;1.77;;
5054;SDS011;13829;48.990;8.346;2023-07-16T07:49:53;2.58;;;1.95;;
5054;SDS011;13829;48.990;8.346;2023-07-16T07:52:20;3.17;;;1.63;;
5054;SDS011;13829;48.990;8.346;2023-07-16T07:54:47;4.47;;;1.88;;
5054;SDS011;13829;48.990;8.346;2023-07-16T07:57:15;4.82;;;1.60;;
5054;SDS011;13829;48.990;8.346;2023-07-16T07:59:42;5.78;;;1.98;;
5054;SDS011;13829;48.990;8.346;2023-07-16T08:02:09;3.38;;;1.60;;
5054;SDS011;13829;48.990;8.346;2023-07-16T08:04:37;4.53;;;2.05;;
5054;SDS011;13829;48.990;8.346;2023-07-16T08:07:04;3.38;;;1.38;;
5054;SDS011;13829;48.990;8.346;2023-07-16T08:09:31;4.55;;;1.90;;
5054;SDS011;13829;48.990;8.346;2023-07-16T08:11:58;2.45;;;1.70;;
5054;SDS011;13829;48.990;8.346;2023-07-16T08:14:25;5.15;;;2.13;;
5054;SDS011;13829;48.990;8.346;2023-07-16T08:16:53;4.78;;;1.77;;
5054;SDS011;13829;48.990;8.346;2023-07-16T08:19:20;6.80;;;2.05;;
5054;SDS011;13829;48.990;8.346;2023-07-16T08:21:49;4.25;;;2.08;;
5054;SDS011;13829;48.990;8.346;2023-07-16T08:24:16;6.10;;;1.92;;
5054;SDS011;13829;48.990;8.346;2023-07-16T08:26:42;3.45;;;2.10;;
5054;SDS011;13829;48.990;8.346;2023-07-16T08:31:39;4.80;;;1.98;;
5054;SDS011;13829;48.990;8.346;2023-07-16T08:34:06;4.95;;;2.53;;
5054;SDS011;13829;48.990;8.346;2023-07-16T08:36:33;4.15;;;1.70;;
5054;SDS011;13829;48.990;8.346;2023-07-16T08:39:01;5.00;;;2.20;;
5054;SDS011;13829;48.990;8.346;2023-07-16T08:41:28;4.75;;;2.30;;
5054;SDS011;13829;48.990;8.346;2023-07-16T08:43:55;6.40;;;1.92;;
5054;SDS011;13829;48.990;8.346;2023-07-16T08:46:23;4.65;;;2.08;;
5054;SDS011;13829;48.990;8.346;2023-07-16T08:48:51;3.70;;;2.25;;
5054;SDS011;13829;48.990;8.346;2023-07-16T08:51:19;6.82;;;2.20;;
5054;SDS011;13829;48.990;8.346;2023-07-16T08:53:47;3.72;;;2.28;;
5054;SDS011;13829;48.990;8.346;2023-07-16T08:56:16;7.20;;;2.33;;
5054;SDS011;13829;48.990;8.346;2023-07-16T08:58:43;5.30;;;2.33;;
5054;SDS011;13829;48.990;8.346;2023-07-16T09:01:11;7.38;;;2.42;;
5054;SDS011;13829;48.990;8.346;2023-07-16T09:03:38;7.28;;;2.38;;
5054;SDS011;13829;48.990;8.346;2023-07-16T09:06:06;7.95;;;2.45;;
5054;SDS011;13829;48.990;8.346;2023-07-16T09:08:33;6.90;;;2.95;;
5054;SDS011;13829;48.990;8.346;2023-07-16T09:11:00;4.28;;;2.13;;
5054;SDS011;13829;48.990;8.346;2023-07-16T09:13:29;6.00;;;2.70;;
5054;SDS011;13829;48.990;8.346;2023-07-16T09:15:57;5.15;;;2.65;;
5054;SDS011;13829;48.990;8.346;2023-07-16T09:18:25;4.65;;;2.20;;
5054;SDS011;13829;48.990;8.346;2023-07-16T09:20:54;6.32;;;2.33;;
5054;SDS011;13829;48.990;8.346;2023-07-16T09:23:23;5.72;;;2.78;;
5054;SDS011;13829;48.990;8.346;2023-07-16T09:25:52;6.38;;;2.10;;
5054;SDS011;13829;48.990;8.346;2023-07-16T09:28:20;4.75;;;2.30;;
5054;SDS011;13829;48.990;8.346;2023-07-16T09:30:49;6.65;;;2.30;;
5054;SDS011;13829;48.990;8.346;2023-07-16T09:33:17;6.03;;;2.47;;
5054;SDS011;13829;48.990;8.346;2023-07-16T09:35:47;5.60;;;2.53;;
5054;SDS011;13829;48.990;8.346;2023-07-16T09:38:16;5.82;;;2.25;;
5054;SDS011;13829;48.990;8.346;2023-07-16T09:40:44;4.72;;;2.22;;
5054;SDS011;13829;48.990;8.346;2023-07-16T09:43:12;8.38;;;2.72;;
5054;SDS011;13829;48.990;8.346;2023-07-16T09:45:40;5.53;;;2.30;;
5054;SDS011;13829;48.990;8.346;2023-07-16T09:48:10;7.15;;;2.70;;
5054;SDS011;13829;48.990;8.346;2023-07-16T09:50:37;7.72;;;2.88;;
5054;SDS011;13829;48.990;8.346;2023-07-16T09:53:12;5.80;;;2.58;;
5054;SDS011;13829;48.990;8.346;2023-07-16T09:55:41;6.00;;;2.55;;
5054;SDS011;13829;48.990;8.346;2023-07-16T09:58:09;6.93;;;2.65;;
5054;SDS011;13829;48.990;8.346;2023-07-16T10:00:39;4.75;;;2.10;;
5054;SDS011;13829;48.990;8.346;2023-07-16T10:03:09;7.13;;;2.30;;
5054;SDS011;13829;48.990;8.346;2023-07-16T10:05:36;4.78;;;1.98;;
5054;SDS011;13829;48.990;8.346;2023-07-16T10:08:04;3.83;;;2.30;;
5054;SDS011;13829;48.990;8.346;2023-07-16T10:10:42;6.95;;;3.00;;
5054;SDS011;13829;48.990;8.346;2023-07-16T10:13:13;4.38;;;2.55;;
5054;SDS011;13829;48.990;8.346;2023-07-16T10:15:50;5.15;;;2.45;;
5054;SDS011;13829;48.990;8.346;2023-07-16T10:18:24;6.82;;;2.40;;
5054;SDS011;13829;48.990;8.346;2023-07-16T10:20:59;5.50;;;2.10;;
5054;SDS011;13829;48.990;8.346;2023-07-16T10:23:36;7.60;;;2.28;;
5054;SDS011;13829;48.990;8.346;2023-07-16T10:26:06;4.03;;;2.38;;
5054;SDS011;13829;48.990;8.346;2023-07-16T10:28:35;5.10;;;2.47;;
5054;SDS011;13829;48.990;8.346;2023-07-16T10:31:03;8.93;;;3.10;;
5054;SDS011;13829;48.990;8.346;2023-07-16T10:33:34;6.15;;;2.47;;
5054;SDS011;13829;48.990;8.346;2023-07-16T10:36:02;6.45;;;2.80;;
5054;SDS011;13829;48.990;8.346;2023-07-16T10:38:30;5.60;;;2.45;;
5054;SDS011;13829;48.990;8.346;2023-07-16T10:41:06;9.32;;;3.03;;
5054;SDS011;13829;48.990;8.346;2023-07-16T10:43:33;8.18;;;2.60;;
5054;SDS011;13829;48.990;8.346;2023-07-16T10:46:01;5.72;;;2.55;;
5054;SDS011;13829;48.990;8.346;2023-07-16T10:48:29;5.82;;;2.60;;
5054;SDS011;13829;48.990;8.346;2023-07-16T10:50:58;5.57;;;2.47;;
5054;SDS011;13829;48.990;8.346;2023-07-16T10:53:25;3.88;;;2.30;;
5054;SDS011;13829;48.990;8.346;2023-07-16T10:55:52;6.55;;;2.53;;
5054;SDS011;13829;48.990;8.346;2023-07-16T10:58:20;4.05;;;2.33;;
5054;SDS011;13829;48.990;8.346;2023-07-16T11:00:47;4.75;;;2.30;;
5054;SDS011;13829;48.990;8.346;2023-07-16T11:03:14;6.18;;;2.40;;
5054;SDS011;13829;48.990;8.346;2023-07-16T11:05:44;4.72;;;2.28;;
5054;SDS011;13829;48.990;8.346;2023-07-16T11:08:22;4.00;;;2.03;;
5054;SDS011;13829;48.990;8.346;2023-07-16T11:10:53;8.50;;;2.40;;
5054;SDS011;13829;48.990;8.346;2023-07-16T11:13:24;6.28;;;2.30;;
5054;SDS011;13829;48.990;8.346;2023-07-16T11:15:52;7.20;;;2.50;;
5054;SDS011;13829;48.990;8.346;2023-07-16T11:18:21;11.27;;;2.55;;
5054;SDS011;13829;48.990;8.346;2023-07-16T11:20:50;5.28;;;2.38;;
5054;SDS011;13829;48.990;8.346;2023-07-16T11:23:19;5.15;;;2.33;;
5054;SDS011;13829;48.990;8.346;2023-07-16T11:25:47;3.00;;;1.85;;
5054;SDS011;13829;48.990;8.346;2023-07-16T11:28:15;5.15;;;2.70;;
5054;SDS011;13829;48.990;8.346;2023-07-16T11:30:42;7.15;;;2.70;;
5054;SDS011;13829;48.990;8.346;2023-07-16T11:33:09;6.82;;;2.80;;
5054;SDS011;13829;48.990;8.346;2023-07-16T11:35:36;5.93;;;2.25;;
5054;SDS011;13829;48.990;8.346;2023-07-16T11:38:04;4.60;;;2.10;;
5054;SDS011;13829;48.990;8.346;2023-07-16T11:40:33;4.88;;;2.40;;
5054;SDS011;13829;48.990;8.346;2023-07-16T11:43:08;4.38;;;2.30;;
5054;SDS011;13829;48.990;8.346;2023-07-16T11:45:36;6.88;;;2.30;;
5054;SDS011;13829;48.990;8.346;2023-07-16T11:48:04;5.25;;;2.50;;
5054;SDS011;13829;48.990;8.346;2023-07-16T11:50:31;6.30;;;2.05;;
5054;SDS011;13829;48.990;8.346;2023-07-16T11:52:59;5.10;;;2.17;;
5054;SDS011;13829;48.990;8.346;2023-07-16T11:55:27;4.97;;;2.28;;
5054;SDS011;13829;48.990;8.346;2023-07-16T11:57:54;4.82;;;2.40;;
5054;SDS011;13829;48.990;8.346;2023-07-16T12:00:25;4.05;;;2.22;;
5054;SDS011;13829;48.990;8.346;2023-07-16T12:02:52;4.97;;;2.45;;
5054;SDS011;13829;48.990;8.346;2023-07-16T12:05:19;7.05;;;2.50;;
5054;SDS011;13829;48.990;8.346;2023-07-16T12:07:49;5.38;;;2.55;;
5054;SDS011;13829;48.990;8.346;2023-07-16T12:10:16;6.07;;;1.98;;
5054;SDS011;13829;48.990;8.346;2023-07-16T12:12:43;3.25;;;2.17;;
5054;SDS011;13829;48.990;8.346;2023-07-16T12:15:10;4.20;;;2.20;;
5054;SDS011;13829;48.990;8.346;2023-07-16T12:17:38;4.97;;;2.47;;
5054;SDS011;13829;48.990;8.346;2023-07-16T12:20:05;6.38;;;2.67;;
5054;SDS011;13829;48.990;8.346;2023-07-16T12:22:33;5.95;;;2.50;;
5054;SDS011;13829;48.990;8.346;2023-07-16T12:25:01;6.90;;;2.50;;
5054;SDS011;13829;48.990;8.346;2023-07-16T12:27:29;6.38;;;2.60;;
5054;SDS011;13829;48.990;8.346;2023-07-16T12:29:55;6.13;;;2.50;;
5054;SDS011;13829;48.990;8.346;2023-07-16T12:32:22;5.93;;;2.47;;
5054;SDS011;13829;48.990;8.346;2023-07-16T12:34:51;6.45;;;2.45;;
5054;SDS011;13829;48.990;8.346;2023-07-16T12:37:19;4.60;;;2.40;;
5054;SDS011;13829;48.990;8.346;2023-07-16T12:39:46;4.95;;;1.90;;
5054;SDS011;13829;48.990;8.346;2023-07-16T12:42:13;6.90;;;2.45;;
5054;SDS011;13829;48.990;8.346;2023-07-16T12:44:40;4.72;;;2.30;;
5054;SDS011;13829;48.990;8.346;2023-07-16T12:47:07;4.90;;;2.05;;
5054;SDS011;13829;48.990;8.346;2023-07-16T12:49:34;3.50;;;2.20;;
5054;SDS011;13829;48.990;8.346;2023-07-16T12:52:03;3.90;;;2.30;;
5054;SDS011;13829;48.990;8.346;2023-07-16T12:54:30;4.07;;;2.03;;
5054;SDS011;13829;48.990;8.346;2023-07-16T12:56:57;4.60;;;2.53;;
5054;SDS011;13829;48.990;8.346;2023-07-16T12:59:24;6.30;;;2.30;;
5054;SDS011;13829;48.990;8.346;2023-07-16T13:01:51;7.15;;;2.50;;
5054;SDS011;13829;48.990;8.346;2023-07-16T13:04:18;6.20;;;2.35;;
5054;SDS011;13829;48.990;8.346;2023-07-16T13:06:45;6.20;;;2.90;;
5054;SDS011;13829;48.990;8.346;2023-07-16T13:09:14;4.68;;;2.25;;
5054;SDS011;13829;48.990;8.346;2023-07-16T13:11:42;6.15;;;2.58;;
5054;SDS011;13829;48.990;8.346;2023-07-16T13:14:09;3.80;;;2.30;;
5054;SDS011;13829;48.990;8.346;2023-07-16T13:16:36;4.68;;;2.45;;
5054;SDS011;13829;48.990;8.346;2023-07-16T13:19:02;6.85;;;2.47;;
5054;SDS011;13829;48.990;8.346;2023-07-16T13:21:30;5.43;;;2.60;;
5054;SDS011;13829;48.990;8.346;2023-07-16T13:23:57;4.43;;;2.65;;
5054;SDS011;13829;48.990;8.346;2023-07-16T13:26:25;6.43;;;2.63;;
5054;SDS011;13829;48.990;8.346;2023-07-16T13:28:52;4.20;;;2.10;;
5054;SDS011;13829;48.990;8.346;2023-07-16T13:31:19;6.03;;;2.75;;
5054;SDS011;13829;48.990;8.346;2023-07-16T13:33:46;3.97;;;2.50;;
5054;SDS011;13829;48.990;8.346;2023-07-16T13:36:13;6.13;;;3.03;;
5054;SDS011;13829;48.990;8.346;2023-07-16T13:38:40;6.55;;;2.47;;
5054;SDS011;13829;48.990;8.346;2023-07-16T13:41:07;4.80;;;2.50;;
5054;SDS011;13829;48.990;8.346;2023-07-16T13:43:36;7.53;;;3.10;;
5054;SDS011;13829;48.990;8.346;2023-07-16T13:46:03;5.30;;;2.70;;
5054;SDS011;13829;48.990;8.346;2023-07-16T13:48:30;11.68;;;2.92;;
5054;SDS011;13829;48.990;8.346;2023-07-16T13:50:57;4.40;;;2.50;;
5054;SDS011;13829;48.990;8.346;2023-07-16T13:53:24;4.90;;;2.92;;
5054;SDS011;13829;48.990;8.346;2023-07-16T13:55:50;4.22;;;2.67;;
5054;SDS011;13829;48.990;8.346;2023-07-16T13:58:18;6.00;;;2.72;;
5054;SDS011;13829;48.990;8.346;2023-07-16T14:00:46;6.50;;;2.53;;
5054;SDS011;13829;48.990;8.346;2023-07-16T14:03:13;3.97;;;2.50;;
5054;SDS011;13829;48.990;8.346;2023-07-16T14:05:40;7.75;;;2.75;;
5054;SDS011;13829;48.990;8.346;2023-07-16T14:08:07;5.43;;;2.65;;
5054;SDS011;13829;48.990;8.346;2023-07-16T14:10:34;4.97;;;3.10;;
5054;SDS011;13829;48.990;8.346;2023-07-16T14:13:01;4.78;;;2.65;;
5054;SDS011;13829;48.990;8.346;2023-07-16T14:15:28;4.85;;;2.80;;
5054;SDS011;13829;48.990;8.346;2023-07-16T14:17:56;4.82;;;2.63;;
5054;SDS011;13829;48.990;8.346;2023-07-16T14:20:23;4.20;;;2.80;;
5054;SDS011;13829;48.990;8.346;2023-07-16T14:22:50;6.97;;;2.50;;
5054;SDS011;13829;48.990;8.346;2023-07-16T14:25:17;7.00;;;2.60;;
5054;SDS011;13829;48.990;8.346;2023-07-16T14:27:44;5.00;;;2.70;;
5054;SDS011;13829;48.990;8.346;2023-07-16T14:30:12;6.50;;;2.40;;
5054;SDS011;13829;48.990;8.346;2023-07-16T14:32:39;5.88;;;3.05;;
5054;SDS011;13829;48.990;8.346;2023-07-16T14:35:09;5.90;;;3.15;;
5054;SDS011;13829;48.990;8.346;2023-07-16T14:37:36;4.68;;;2.75;;
5054;SDS011;13829;48.990;8.346;2023-07-16T14:40:04;5.05;;;2.47;;
5054;SDS011;13829;48.990;8.346;2023-07-16T14:42:33;6.10;;;2.22;;
5054;SDS011;13829;48.990;8.346;2023-07-16T14:45:00;4.32;;;2.60;;
5054;SDS011;13829;48.990;8.346;2023-07-16T14:47:29;4.85;;;2.55;;
5054;SDS011;13829;48.990;8.346;2023-07-16T14:49:57;4.38;;;2.45;;
5054;SDS011;13829;48.990;8.346;2023-07-16T14:52:25;7.38;;;3.67;;
5054;SDS011;13829;48.990;8.346;2023-07-16T14:54:52;5.35;;;2.85;;
5054;SDS011;13829;48.990;8.346;2023-07-16T14:57:19;4.07;;;2.40;;
5054;SDS011;13829;48.990;8.346;2023-07-16T14:59:45;5.90;;;3.05;;
5054;SDS011;13829;48.990;8.346;2023-07-16T15:02:12;6.72;;;4.18;;
5054;SDS011;13829;48.990;8.346;2023-07-16T15:04:39;11.00;;;5.30;;
5054;SDS011;13829;48.990;8.346;2023-07-16T15:07:06;4.93;;;3.20;;